Buoy 53524

sailwx.info

Track history (hours):
 
Tides and Currents Weather Stations Pressure Air Temp Water Temp Dewpoint Dewpoint Depression Visibility Wind Speed Wind Dir Waves Ship Positions

Drifting buoy 53524

Last reported at 2015-Mar-28 12:00 UTC. Time now 2015-Mar-28 16:05 UTC.
Position S 14°03' E 080°29'.

Barometer 1009.0 mb
Water temperature 29.1 ° C

Date/timePositionNaut miles runAvg speedWind from/ knotsBaromVisibWave heightAir tempDewpointWater temp
2015-Mar-28 12:00S 14°03' E 080°29'1 0.3 1009.0 29.1
2015-Mar-28 10:00S 14°04' E 080°29'0 0.2 1008.7 29.2
2015-Mar-28 09:00S 14°04' E 080°29'2 1.1 1009.2 29.2
2015-Mar-28 07:00S 14°02' E 080°30'2 0.3 1010.0 29.2
2015-Mar-28 01:00S 14°00' E 080°32'2 0.9 1010.4 29.1
2015-Mar-27 23:00S 13°59' E 080°33'1 0.9 1009.8 29.1
2015-Mar-27 22:00S 13°60' E 080°34'2 1.1 1009.7 29.1
2015-Mar-27 20:00S 13°59' E 080°36'0 0.0 1010.7 29.1
2015-Mar-27 19:00S 13°59' E 080°36'2 0.3 1011.2 29.1
2015-Mar-27 12:00S 13°57' E 080°38'1 0.5 1010.6 29.2
2015-Mar-27 10:00S 13°57' E 080°39'1 0.5 1010.4 29.2
2015-Mar-27 09:00S 13°58' E 080°39'1 0.3 1011.3 -0.1
2015-Mar-27 07:00S 13°58' E 080°38'2 0.8 1012.6 29.2
2015-Mar-27 04:00S 13°56' E 080°39'1 1.1 1013.9 29.2
2015-Mar-27 03:00S 13°56' E 080°40'1 0.4 1013.3 29.1
2015-Mar-27 00:00S 13°54' E 080°40'4 0.6 1011.5 29.2
2015-Mar-26 18:00S 13°52' E 080°43'12 0.6 1013.4 29.2
2015-Mar-25 22:00S 13°42' E 080°50'2 0.8 1010.1 29.1
2015-Mar-25 20:00S 13°42' E 080°52'3 3.4 1011.0 29.2
2015-Mar-25 19:00S 13°40' E 080°54'0 0.0 1012.0 29.2
2015-Mar-25 15:00S 13°40' E 080°54'3 0.8 1012.2 29.2
2015-Mar-25 11:00S 13°39' E 080°57'2 0.6 1009.5 29.3
2015-Mar-25 08:00S 13°38' E 080°59'0 0.5 1009.6 29.3
2015-Mar-25 07:00S 13°38' E 080°59'2 0.8 1010.5 29.3
2015-Mar-25 04:00S 13°38' E 081°01'0 0.0 1012.0 29.2
2015-Mar-25 01:00S 13°38' E 081°01'2 0.8 1010.7 29.2
2015-Mar-24 22:00S 13°36' E 081°03'0 0.0 1009.9 29.2
2015-Mar-24 21:00S 13°36' E 081°03'8 0.8 1010.0 29.2
2015-Mar-24 11:00S 13°30' E 081°09'3 0.9 1010.1 29.3
2015-Mar-24 08:00S 13°29' E 081°12'0 0.1 1010.4 29.4
2015-Mar-24 04:00S 13°29' E 081°12'5 0.8 1012.5 29.2
2015-Mar-23 21:00S 13°27' E 081°17'6 0.6 1010.4 29.2
2015-Mar-23 11:00S 13°24' E 081°22'0 0.0 1010.9 29.2
2015-Mar-23 10:00S 13°24' E 081°22'4 0.7 1010.6 29.2
2015-Mar-23 04:00S 13°23' E 081°26'26 1.0 1013.2 29.2
2015-Mar-22 01:00S 13°08' E 081°49'11 0.8 1012.5 29.4
2015-Mar-21 10:00S 13°03' E 081°59'10 1.0 1011.0 29.7
2015-Mar-20 23:00S 13°02' E 082°10'3 0.9 1011.4 29.4
2015-Mar-20 20:00S 13°02' E 082°13'0 0.0 1011.9 29.5
2015-Mar-20 16:00S 13°02' E 082°13'6 1.0 1013.8 29.6
2015-Mar-20 10:00S 13°01' E 082°19'0 0.0 1009.9 30.2
2015-Mar-20 09:00S 13°01' E 082°19'2 1.1 1010.2 30.1
2015-Mar-20 07:00S 13°02' E 082°21'3 0.4 1011.5 30.0
2015-Mar-20 00:00S 13°01' E 082°25'2 1.7 1010.8 29.3
2015-Mar-19 23:00S 13°00' E 082°26'0 0.0 1010.4 29.4
2015-Mar-19 22:00S 13°00' E 082°26'2 1.2 1010.1 29.4
2015-Mar-19 20:00S 13°00' E 082°29'0 0.0 1011.0 29.4
2015-Mar-19 19:00S 13°00' E 082°29'4 0.6 1011.7 29.4
2015-Mar-19 12:00S 13°00' E 082°33'2 0.5 1008.7 29.7
2015-Mar-19 09:00S 13°00' E 082°35'4 1.9 1009.0 29.7
2015-Mar-19 07:00S 12°60' E 082°39'2 0.5 1010.5 29.6
2015-Mar-19 03:00S 13°00' E 082°41'0 0.0 1011.6 29.3
2015-Mar-19 01:00S 13°00' E 082°41'2 1.8 1010.4 29.3
2015-Mar-19 00:00S 12°60' E 082°42'1 0.8 1009.8 29.3
2015-Mar-18 23:00S 13°00' E 082°43'1 0.2 1009.5 29.3
2015-Mar-18 20:00S 13°00' E 082°44'0 0.0 1010.4 29.4
2015-Mar-18 19:00S 13°00' E 082°44'3 1.1 1010.9 29.4
2015-Mar-18 16:00S 13°00' E 082°47'3 0.8 1012.8 29.4
2015-Mar-18 12:00S 12°60' E 082°50'   1009.8 29.6
Track history (hours):
 
Tides and Currents Weather Stations Pressure Air Temp Water Temp Dewpoint Dewpoint Depression Visibility Wind Speed Wind Dir Waves Ship Positions

Drifting buoy 53524

Last reported at 2015-Mar-28 12:00 UTC. Time now 2015-Mar-28 16:05 UTC.
Position S 14°03' E 080°29'.

Barometer 1009.0 mb
Water temperature 29.1 ° C

Date/timePositionNaut miles runAvg speedWind from/ knotsBaromVisibWave heightAir tempDewpointWater temp
2015-Mar-28 12:00S 14°03' E 080°29'1 0.3 1009.0 29.1
2015-Mar-28 10:00S 14°04' E 080°29'0 0.2 1008.7 29.2
2015-Mar-28 09:00S 14°04' E 080°29'2 1.1 1009.2 29.2
2015-Mar-28 07:00S 14°02' E 080°30'2 0.3 1010.0 29.2
2015-Mar-28 01:00S 14°00' E 080°32'2 0.9 1010.4 29.1
2015-Mar-27 23:00S 13°59' E 080°33'1 0.9 1009.8 29.1
2015-Mar-27 22:00S 13°60' E 080°34'2 1.1 1009.7 29.1
2015-Mar-27 20:00S 13°59' E 080°36'0 0.0 1010.7 29.1
2015-Mar-27 19:00S 13°59' E 080°36'2 0.3 1011.2 29.1
2015-Mar-27 12:00S 13°57' E 080°38'1 0.5 1010.6 29.2
2015-Mar-27 10:00S 13°57' E 080°39'1 0.5 1010.4 29.2
2015-Mar-27 09:00S 13°58' E 080°39'1 0.3 1011.3 -0.1
2015-Mar-27 07:00S 13°58' E 080°38'2 0.8 1012.6 29.2
2015-Mar-27 04:00S 13°56' E 080°39'1 1.1 1013.9 29.2
2015-Mar-27 03:00S 13°56' E 080°40'1 0.4 1013.3 29.1
2015-Mar-27 00:00S 13°54' E 080°40'4 0.6 1011.5 29.2
2015-Mar-26 18:00S 13°52' E 080°43'12 0.6 1013.4 29.2
2015-Mar-25 22:00S 13°42' E 080°50'2 0.8 1010.1 29.1
2015-Mar-25 20:00S 13°42' E 080°52'3 3.4 1011.0 29.2
2015-Mar-25 19:00S 13°40' E 080°54'0 0.0 1012.0 29.2
2015-Mar-25 15:00S 13°40' E 080°54'3 0.8 1012.2 29.2
2015-Mar-25 11:00S 13°39' E 080°57'2 0.6 1009.5 29.3
2015-Mar-25 08:00S 13°38' E 080°59'0 0.5 1009.6 29.3
2015-Mar-25 07:00S 13°38' E 080°59'2 0.8 1010.5 29.3
2015-Mar-25 04:00S 13°38' E 081°01'0 0.0 1012.0 29.2
2015-Mar-25 01:00S 13°38' E 081°01'2 0.8 1010.7 29.2
2015-Mar-24 22:00S 13°36' E 081°03'0 0.0 1009.9 29.2
2015-Mar-24 21:00S 13°36' E 081°03'8 0.8 1010.0 29.2
2015-Mar-24 11:00S 13°30' E 081°09'3 0.9 1010.1 29.3
2015-Mar-24 08:00S 13°29' E 081°12'0 0.1 1010.4 29.4
2015-Mar-24 04:00S 13°29' E 081°12'5 0.8 1012.5 29.2
2015-Mar-23 21:00S 13°27' E 081°17'6 0.6 1010.4 29.2
2015-Mar-23 11:00S 13°24' E 081°22'0 0.0 1010.9 29.2
2015-Mar-23 10:00S 13°24' E 081°22'4 0.7 1010.6 29.2
2015-Mar-23 04:00S 13°23' E 081°26'26 1.0 1013.2 29.2
2015-Mar-22 01:00S 13°08' E 081°49'11 0.8 1012.5 29.4
2015-Mar-21 10:00S 13°03' E 081°59'10 1.0 1011.0 29.7
2015-Mar-20 23:00S 13°02' E 082°10'3 0.9 1011.4 29.4
2015-Mar-20 20:00S 13°02' E 082°13'0 0.0 1011.9 29.5
2015-Mar-20 16:00S 13°02' E 082°13'6 1.0 1013.8 29.6
2015-Mar-20 10:00S 13°01' E 082°19'0 0.0 1009.9 30.2
2015-Mar-20 09:00S 13°01' E 082°19'2 1.1 1010.2 30.1
2015-Mar-20 07:00S 13°02' E 082°21'3 0.4 1011.5 30.0
2015-Mar-20 00:00S 13°01' E 082°25'2 1.7 1010.8 29.3
2015-Mar-19 23:00S 13°00' E 082°26'0 0.0 1010.4 29.4
2015-Mar-19 22:00S 13°00' E 082°26'2 1.2 1010.1 29.4
2015-Mar-19 20:00S 13°00' E 082°29'0 0.0 1011.0 29.4
2015-Mar-19 19:00S 13°00' E 082°29'4 0.6 1011.7 29.4
2015-Mar-19 12:00S 13°00' E 082°33'2 0.5 1008.7 29.7
2015-Mar-19 09:00S 13°00' E 082°35'4 1.9 1009.0 29.7
2015-Mar-19 07:00S 12°60' E 082°39'2 0.5 1010.5 29.6
2015-Mar-19 03:00S 13°00' E 082°41'0 0.0 1011.6 29.3
2015-Mar-19 01:00S 13°00' E 082°41'2 1.8 1010.4 29.3
2015-Mar-19 00:00S 12°60' E 082°42'1 0.8 1009.8 29.3
2015-Mar-18 23:00S 13°00' E 082°43'1 0.2 1009.5 29.3
2015-Mar-18 20:00S 13°00' E 082°44'0 0.0 1010.4 29.4
2015-Mar-18 19:00S 13°00' E 082°44'3 1.1 1010.9 29.4
2015-Mar-18 16:00S 13°00' E 082°47'3 0.8 1012.8 29.4
2015-Mar-18 12:00S 12°60' E 082°50'   1009.8 29.6

Dump ship's entire track history